Aktualne dane pomiarowe

Uwaga, wersja testowa! Automatyczne pobieranie danych za pomocą narzędzi lub skryptów to umożliwiających jest zabronione.

Dane meteo z obszaru Polski uzyskane na podstawie depesz SYNOP pobieranych co godzinę z NWS. Najedź myszką na symbol przedstawiony w tabeli, aby uzyskać informacje co do jego znaczenia. Prosimy pamiętać, że to testowa wersja strony, która jeszcze nie jest ukończona. Stworzono również jest krótki FAQ dotyczący korzystania z tej podstrony Anomalie temperatury w chwili obecnej odniesione są do okresu referencyjnego 1951-2016. Okres ten będzie później zmieniony na 1981-2010. Kliknij ikonę aby pobrać plik CSV. Kliknij ikonę aby wygenerować mapę synoptyczną dla danego terminu.

Wybierz Datę:    

        

Śnieżka (12510)

Dane terminowe dla wybranej stacji. Kliknij datę, aby otrzymać dane z tego terminu dla wszystkich stacji.

TemperaturaZachmurzenieWiatrCiśnienieOpadyPogoda
 Data t td wb tx tn tg rh  Nt Nl Cl Cm Ch ws wd g1 g2 wx mslp ppp ch 24h 12h t ww ww w1 w2  
2019-08-08 23:00:00 10.3 6.1 7.7--- 7550.0wx-wx12wx---- 838.0 0.3---------
2019-08-08 22:00:00 10.5 6.4 8.0--- 7650.0wx-wxwx12wx---- 838.2 0.9---------
2019-08-08 21:00:00 10.4 7.3 8.4--- 8150.0wx-wxwx13wx---- 837.7 0.7---------
2019-08-08 20:00:00 10.6 6.9 8.3--- 7850.0wx-wxwx9wx---- 837.7 0.5---------
2019-08-08 19:00:00 10.7 6.6 8.2--- 7650.0wxwxwxwxwx9wx---- 837.3 0.2---------
2019-08-08 18:00:00 11.0 7.9 9.0 12.8 8.5- 8150.0wxwxwxwxwx9wx---- 837.0 -0.2- 0.012wx---
2019-08-08 17:00:00 11.5 7.4 9.0--- 7650.0wxwxwxwxwx7wx---- 837.2 -0.2---------
2019-08-08 16:00:00 12.1 8.0 9.5--- 7650.0wxwxwxwxwx6wx---- 837.1 -0.4---------
2019-08-08 15:00:00 12.0 7.7 9.3--- 7550.0wxwxwxwxwx6wx---- 837.2 -0.3---------
2019-08-08 14:00:00 11.6 7.9 9.3--- 7850.0wxwxwx6wx---- 837.4 0.3---------
2019-08-08 13:00:00 12.0 8.8 9.9--- 8140.0wxwxwx5wx---- 837.5 0.6---------
2019-08-08 12:00:00 11.2 8.2 9.3--- 8240.0wxwxwxwx5wx---- 837.5 1.0- 0.06------
2019-08-08 11:00:00 11.0 7.9 9.0--- 8140.0wxwxwxwx6wx---- 837.1 1.0---------
2019-08-08 10:00:00 9.5 6.9 7.8--- 8440.0wxwxwxwx8wx---- 836.9 1.1---------
2019-08-08 09:00:00 9.9 6.8 7.9--- 8130.0wxwxwxwx7wx---- 836.5 1.0---------
2019-08-08 08:00:00 9.0 6.8 7.6--- 8630.0wxwxwx9wx---- 836.1 1.2---------
2019-08-08 07:00:00 9.1 6.0 7.2--- 8130.0wxwxwx9wx---- 835.8 1.5---------
2019-08-08 06:00:00 8.5 6.1 6.9 11.2 7.7- 8530.0wxwxwx10wx---- 835.5 1.7 2.3 1.012wx-w1- 4.2
2019-08-08 05:00:00 8.1 6.4 7.0--- 8930.0wxwxwx12wx---- 834.9 1.8---wx---
2019-08-08 04:00:00 8.0 7.6 7.7--- 970.8wxwxwx14wx---- 834.3 1.2---wx-w1w2--
2019-08-08 03:00:00 7.8 7.7 7.7--- 990.1wxwxwx16wx---- 833.8 1.3---wx-w1w2--
2019-08-08 02:00:00 7.8 7.7 7.7--- 990.1wx-17wx---- 833.1 0.5---wx-w1w2--
2019-08-08 01:00:00 8.6 8.3 8.3--- 980.1wx-17wx---- 833.1 0.9---wx-w1w2--
2019-08-08 00:00:00 8.5 8.2 8.2--- 980.1wx-18wx---- 832.5 -0.1- 1.06wx-w1w2--
2019-08-07 23:00:00 8.9 8.6 8.6--- 980.1wx-15wx---- 832.6 -0.2---wx-w1w2--
2019-08-07 22:00:00 9.1 8.8 8.8--- 980.1wx-16wx---- 832.2 -0.5---wx-w1w2--
2019-08-07 21:00:00 9.2 8.9 8.9--- 980.1wx-13wx---- 832.6 0.7---wx-w1w2--
2019-08-07 20:00:00 9.8 9.5 9.5--- 980.1wx-7wx---- 832.8 0.3---wx-w1w2--
2019-08-07 19:00:00 10.6 10.3 10.3--- 980.1wx-9wx---- 832.7 -0.2---wx-w1w2--
2019-08-07 18:00:00 11.2 10.7 10.8 14.5 10.2- 970.1wx-12wx---- 831.9 -1.2- 1.012wx-w1w2--
2019-08-07 17:00:00 11.2 10.7 10.8--- 970.1wx-11wx---- 832.5 -1.2---wx-w1w2--
2019-08-07 16:00:00 11.8 11.3 11.4--- 970.6wxwxwx9wx---- 832.9 -1.2---wx-w1w2--
2019-08-07 15:00:00 12.9 12.3 12.4--- 960.6wxwxwx6wx---- 833.1 -1.2---wx-w1--
2019-08-07 14:00:00 13.3 11.4 12.0--- 8850.0wxwxwxwxwx5wx---- 833.7 -1.1---------
2019-08-07 13:00:00 13.1 11.3 11.8--- 8950.0wxwxwxwx8wx---- 834.1 -1.0---------
2019-08-07 12:00:00 13.1 11.0 11.7--- 8750.0wxwxwx5wx---- 834.3 -0.6- 0.06------
2019-08-07 11:00:00 13.2 10.6 11.5--- 8450.0wxwxwxwxwx4wx---- 834.8 0.1---------
2019-08-07 10:00:00 13.4 11.1 11.8--- 8650.0wxwxwxwxwx4wx---- 835.1 0.8---------
2019-08-07 09:00:00 13.0 9.3 10.6--- 7850.0wxwxwxwxwx7wx---- 834.9 0.6---wx---
2019-08-07 08:00:00 10.8 10.3 10.4--- 970.9wxwxwx4wx---- 834.7 1.5---wx-w1w2--
2019-08-07 07:00:00 10.6 10.1 10.2--- 970.9wxwxwx6wx---- 834.3 0.3---wx---
2019-08-07 06:00:00 10.9 9.7 10.0 12.4 10.5- 9250.0wxwxwxwx7wx---- 834.3 -0.4 3.2 0.412wx-w1w2- 7.0
2019-08-07 05:00:00 11.5 10.9 11.0--- 9650.0wxwxwxwxwx7wx---- 833.2 -1.5---wx-w1--
2019-08-07 04:00:00 10.5 9.9 10.0--- 960.1wxwxwx9wx---- 834.0 -0.8---wx-w1--
2019-08-07 03:00:00 11.0 10.1 10.3--- 9450.0wx-wxwx6wx---- 834.7 0.6---------
2019-08-07 02:00:00 10.9 10.4 10.5--- 9750.0wx-wxwx8wx---- 834.7 0.1---------
2019-08-07 01:00:00 11.5 9.2 10.0--- 8650.0wx-wxwx10wx---- 834.8 -0.4---------
2019-08-07 00:00:00 12.1 9.3 10.3--- 8350.0wx-wx12wx---- 834.1 -0.8- 0.06------
2.0 ms

 

Print Friendly, PDF & Email